Time;durP1;ratioP1;P1;durP2;ratioP2;P2;SDS_P1;SDS_P2;PMS_P1;PMS_P2;Temp;Humidity;BMP_temperature;BMP_pressure;BME280_temperature;BME280_humidity;BME280_pressure;Samples;Min_cycle;Max_cycle;Signal;HPM_P1;HPM_P2
2023/05/16 00:00:08;;;;;;;4.50;3.40;;;;;;;15.53;48.43;100758.39;107202;1246;60843;-69
2023/05/16 00:02:57;;;;;;;5.50;3.60;;;;;;;15.49;48.58;100748.63;107124;1246;71411;-67
2023/05/16 00:05:26;;;;;;;6.40;3.80;;;;;;;15.47;48.49;100739.20;107188;1245;73393;-68
2023/05/16 00:07:55;;;;;;;5.80;3.60;;;;;;;15.44;48.73;100743.95;107218;1245;61503;-69
2023/05/16 00:10:23;;;;;;;6.40;4.80;;;;;;;15.42;48.94;100745.23;107202;1243;60488;-71
2023/05/16 00:12:53;;;;;;;6.00;3.60;;;;;;;15.40;48.76;100752.57;107220;1256;62312;-70
2023/05/16 00:15:23;;;;;;;8.90;3.70;;;;;;;15.36;48.93;100764.35;107231;1256;61412;-67
2023/05/16 00:17:57;;;;;;;5.00;3.40;;;;;;;15.32;49.04;100770.27;107098;1247;59169;-67
2023/05/16 00:20:27;;;;;;;6.50;4.00;;;;;;;15.29;48.74;100770.59;107204;1256;62513;-67
2023/05/16 00:22:59;;;;;;;5.90;3.60;;;;;;;15.29;48.82;100765.55;107132;1246;59018;-68
2023/05/16 00:25:29;;;;;;;5.20;3.20;;;;;;;15.28;48.85;100763.86;107106;1248;60556;-67
2023/05/16 00:27:57;;;;;;;7.10;3.50;;;;;;;15.28;48.99;100765.49;107157;1244;72829;-67
2023/05/16 00:30:26;;;;;;;9.50;3.70;;;;;;;15.28;48.84;100766.85;107093;1248;72127;-68
2023/05/16 00:32:56;;;;;;;6.70;3.80;;;;;;;15.32;48.81;100759.65;107246;1244;59914;-68
2023/05/16 00:35:25;;;;;;;5.40;4.10;;;;;;;15.31;48.66;100760.58;107186;1252;62674;-68
2023/05/16 00:37:55;;;;;;;6.40;3.50;;;;;;;15.33;48.66;100760.81;107176;1244;59014;-68
2023/05/16 00:40:24;;;;;;;6.20;3.70;;;;;;;15.35;48.01;100754.98;107105;1247;60375;-70
2023/05/16 00:42:53;;;;;;;6.80;4.00;;;;;;;15.38;48.14;100749.05;107099;1244;63475;-74
2023/05/16 00:45:22;;;;;;;5.00;3.40;;;;;;;15.39;48.29;100741.08;107157;1244;70926;-70
2023/05/16 00:47:51;;;;;;;5.50;3.70;;;;;;;15.41;47.82;100731.28;107186;1252;60233;-69
2023/05/16 00:50:20;;;;;;;4.40;3.30;;;;;;;15.44;47.76;100736.13;107134;1255;62484;-69
2023/05/16 00:52:50;;;;;;;5.70;3.50;;;;;;;15.45;47.36;100727.55;107241;1245;61309;-69
2023/05/16 00:55:19;;;;;;;6.30;3.50;;;;;;;15.48;47.29;100723.23;107061;1251;58294;-69
2023/05/16 00:57:48;;;;;;;15.60;3.40;;;;;;;15.50;47.09;100718.14;107140;1256;62225;-70
2023/05/16 01:00:18;;;;;;;5.10;3.60;;;;;;;15.52;46.82;100721.81;107040;1244;71244;-69
2023/05/16 01:02:50;;;;;;;4.90;3.60;;;;;;;15.54;46.80;100728.85;107130;1256;60918;-69
2023/05/16 01:05:20;;;;;;;11.50;3.70;;;;;;;15.56;46.57;100740.08;107184;1244;63228;-70
2023/05/16 01:07:49;;;;;;;5.40;3.70;;;;;;;15.58;46.26;100748.29;107167;1245;60447;-69
2023/05/16 01:10:18;;;;;;;4.90;3.30;;;;;;;15.58;46.08;100753.73;107082;1245;61148;-70
2023/05/16 01:13:17;;;;;;;6.10;3.40;;;;;;;15.60;46.14;100763.18;107154;1250;63534;-72
2023/05/16 01:16:21;;;;;;;5.80;3.50;;;;;;;15.61;45.90;100769.45;107133;1244;72655;-69
2023/05/16 01:19:12;;;;;;;6.90;3.90;;;;;;;15.60;45.90;100773.38;107266;1245;60278;-69
2023/05/16 01:22:01;;;;;;;5.90;3.10;;;;;;;15.59;45.97;100767.97;107179;1253;71450;-69
2023/05/16 01:24:45;;;;;;;5.70;3.50;;;;;;;15.57;46.40;100765.26;107131;1245;58991;-70
2023/05/16 01:27:15;;;;;;;4.60;3.40;;;;;;;15.52;46.33;100757.15;107087;1248;61616;-71
2023/05/16 01:29:44;;;;;;;6.40;3.50;;;;;;;15.51;46.47;100761.55;107107;1248;63313;-72
2023/05/16 01:32:13;;;;;;;5.50;3.30;;;;;;;15.51;46.27;100759.50;107255;1245;61214;-76
2023/05/16 01:34:42;;;;;;;5.20;3.60;;;;;;;15.53;46.29;100759.14;107176;1245;59474;-73
2023/05/16 01:37:40;;;;;;;8.30;3.20;;;;;;;15.55;46.29;100755.62;107331;1242;73890;-71
2023/05/16 01:40:20;;;;;;;6.30;3.70;;;;;;;15.53;46.36;100760.17;107361;1242;57341;-71
2023/05/16 01:42:53;;;;;;;6.50;3.30;;;;;;;15.51;46.16;100752.44;107335;1241;61383;-70
2023/05/16 01:45:31;;;;;;;6.70;3.60;;;;;;;15.51;46.35;100750.73;107316;1244;63721;-70
2023/05/16 01:48:28;;;;;;;5.40;3.60;;;;;;;15.49;46.40;100746.52;107282;1245;72206;-70
2023/05/16 01:50:59;;;;;;;5.10;3.30;;;;;;;15.45;46.25;100742.48;107383;1242;59787;-70
2023/05/16 01:53:37;;;;;;;3.80;3.20;;;;;;;15.48;46.07;100742.52;107312;1253;64255;-71
2023/05/16 01:56:14;;;;;;;6.10;3.10;;;;;;;15.49;45.83;100746.85;107243;1244;60796;-68
2023/05/16 01:58:45;;;;;;;5.30;3.00;;;;;;;15.48;45.79;100746.77;107130;1244;59308;-71
2023/05/16 02:01:14;;;;;;;5.80;3.20;;;;;;;15.51;45.61;100754.96;107244;1241;73050;-70
2023/05/16 02:03:43;;;;;;;4.40;3.40;;;;;;;15.51;45.47;100760.70;107189;1245;72314;-70
2023/05/16 02:06:13;;;;;;;4.50;2.90;;;;;;;15.52;45.32;100769.43;107291;1241;70368;-70
2023/05/16 02:08:42;;;;;;;4.70;3.10;;;;;;;15.50;45.43;100774.02;107257;1245;73860;-69
2023/05/16 02:11:11;;;;;;;4.90;3.10;;;;;;;15.47;45.50;100778.27;107260;1245;58959;-69
2023/05/16 02:13:41;;;;;;;4.10;3.30;;;;;;;15.44;45.64;100782.22;107370;1243;58962;-70
2023/05/16 02:16:10;;;;;;;4.90;3.40;;;;;;;15.43;45.79;100782.89;107327;1254;62280;-70
2023/05/16 02:18:40;;;;;;;6.80;3.50;;;;;;;15.40;46.04;100783.46;107392;1245;60770;-71
2023/05/16 02:21:09;;;;;;;5.00;3.40;;;;;;;15.37;45.95;100786.36;107254;1245;59866;-70
2023/05/16 02:23:38;;;;;;;5.30;3.30;;;;;;;15.36;46.10;100783.71;107194;1245;62474;-69
2023/05/16 02:26:07;;;;;;;5.10;3.50;;;;;;;15.35;46.31;100782.72;107319;1241;58809;-69
2023/05/16 02:28:36;;;;;;;4.90;3.50;;;;;;;15.32;46.41;100783.85;107345;1241;58993;-69
2023/05/16 02:31:05;;;;;;;6.50;3.50;;;;;;;15.31;46.64;100792.91;107267;1244;62482;-69
2023/05/16 02:33:34;;;;;;;4.80;3.60;;;;;;;15.30;46.71;100791.61;107291;1245;61978;-69
2023/05/16 02:36:03;;;;;;;7.20;3.60;;;;;;;15.26;46.89;100788.80;107348;1241;68413;-69
2023/05/16 02:38:32;;;;;;;11.00;4.10;;;;;;;15.21;47.00;100782.38;107142;1254;63661;-70
2023/05/16 02:41:01;;;;;;;6.70;3.90;;;;;;;15.20;47.24;100788.09;107170;1245;59072;-69
2023/05/16 02:43:30;;;;;;;6.20;3.60;;;;;;;15.19;47.40;100785.95;107145;1241;58970;-69
2023/05/16 02:45:59;;;;;;;6.20;4.00;;;;;;;15.13;47.58;100791.39;107030;1241;73795;-70
2023/05/16 02:48:28;;;;;;;6.40;3.60;;;;;;;15.13;47.61;100799.26;107232;1241;71524;-69
2023/05/16 02:50:59;;;;;;;6.50;3.80;;;;;;;15.15;47.79;100797.36;107173;1244;59816;-69
2023/05/16 02:53:28;;;;;;;6.40;4.00;;;;;;;15.17;47.84;100794.23;107209;1245;63584;-70
2023/05/16 02:55:57;;;;;;;6.80;3.50;;;;;;;15.15;47.94;100791.56;107259;1244;60159;-69
2023/05/16 02:58:26;;;;;;;7.40;3.50;;;;;;;15.14;48.29;100794.83;107338;1244;60203;-69
2023/05/16 03:00:55;;;;;;;8.40;4.10;;;;;;;15.13;48.39;100795.23;107408;1247;74148;-68
2023/05/16 03:03:24;;;;;;;7.90;4.30;;;;;;;15.08;48.41;100788.09;107383;1244;71849;-68
2023/05/16 03:05:53;;;;;;;5.80;3.80;;;;;;;15.08;48.75;100796.39;107262;1241;71005;-69
2023/05/16 03:08:22;;;;;;;6.40;3.60;;;;;;;15.06;48.61;100801.08;107353;1244;73759;-69
2023/05/16 03:10:51;;;;;;;7.30;3.90;;;;;;;15.05;48.57;100802.58;107419;1245;61229;-73
2023/05/16 03:13:19;;;;;;;7.10;4.90;;;;;;;15.04;49.05;100807.24;107349;1241;61351;-74
2023/05/16 03:15:49;;;;;;;5.50;4.10;;;;;;;15.04;49.28;100813.73;107434;1244;73512;-69
2023/05/16 03:18:18;;;;;;;8.90;3.70;;;;;;;15.05;49.26;100814.41;107360;1245;63058;-70
2023/05/16 03:20:47;;;;;;;6.50;3.90;;;;;;;15.08;49.12;100813.52;107419;1249;59456;-72
2023/05/16 03:23:16;;;;;;;7.60;3.40;;;;;;;15.13;49.36;100814.61;107445;1242;63538;-70
2023/05/16 03:25:46;;;;;;;5.60;4.00;;;;;;;15.17;49.37;100807.30;107404;1242;60500;-70
2023/05/16 03:28:17;;;;;;;8.40;4.40;;;;;;;15.20;49.32;100804.27;107390;1242;59122;-71
2023/05/16 03:30:46;;;;;;;9.80;4.50;;;;;;;15.23;49.69;100798.88;107378;1241;73462;-72
2023/05/16 03:33:15;;;;;;;9.00;4.10;;;;;;;15.28;49.89;100795.83;107380;1244;72048;-72
2023/05/16 03:35:44;;;;;;;6.80;3.80;;;;;;;15.28;49.90;100792.62;107390;1245;70346;-71
2023/05/16 03:38:13;;;;;;;14.50;4.60;;;;;;;15.33;49.87;100791.83;107119;1243;74248;-72
2023/05/16 03:40:44;;;;;;;8.70;4.80;;;;;;;15.39;50.07;100791.14;107313;1242;58741;-72
2023/05/16 03:43:13;;;;;;;8.60;4.80;;;;;;;15.41;50.44;100786.23;107364;1244;58984;-76
2023/05/16 03:45:43;;;;;;;5.90;4.00;;;;;;;15.44;50.66;100784.17;107411;1242;63346;-76
2023/05/16 03:48:12;;;;;;;7.20;4.90;;;;;;;15.42;50.73;100790.84;107302;1254;72152;-75
2023/05/16 03:50:41;;;;;;;6.60;4.70;;;;;;;15.46;50.58;100788.45;107210;1247;71191;-75
2023/05/16 03:53:11;;;;;;;14.60;4.90;;;;;;;15.52;50.58;100790.98;107286;1245;73591;-76
2023/05/16 03:55:40;;;;;;;6.10;4.20;;;;;;;15.52;50.69;100785.52;107347;1244;61030;-74
2023/05/16 03:58:09;;;;;;;10.10;5.30;;;;;;;15.54;50.84;100783.27;107501;1244;61615;-74
2023/05/16 04:00:38;;;;;;;7.90;4.40;;;;;;;15.60;51.02;100781.27;107422;1246;72720;-72
2023/05/16 04:03:07;;;;;;;7.80;4.40;;;;;;;15.60;50.89;100783.17;107435;1241;72164;-75
2023/05/16 04:05:36;;;;;;;8.00;4.70;;;;;;;15.65;51.10;100786.34;107315;1241;60332;-74
2023/05/16 04:08:05;;;;;;;9.20;4.80;;;;;;;15.68;51.29;100793.20;107168;1248;63193;-76
2023/05/16 04:10:34;;;;;;;5.60;4.30;;;;;;;15.73;51.17;100801.15;107176;1244;59039;-74
2023/05/16 04:13:03;;;;;;;7.40;4.70;;;;;;;15.68;51.27;100809.39;107138;1244;60333;-74
2023/05/16 04:15:32;;;;;;;9.30;4.50;;;;;;;15.76;51.03;100808.44;107133;1246;63244;-73
2023/05/16 04:18:02;;;;;;;7.70;4.70;;;;;;;15.75;51.30;100815.26;107134;1244;61053;-71
2023/05/16 04:20:31;;;;;;;5.70;4.00;;;;;;;15.80;51.45;100820.73;107142;1244;69065;-73
2023/05/16 04:23:00;;;;;;;5.70;4.00;;;;;;;15.84;51.16;100821.73;107297;1241;73510;-78
2023/05/16 04:25:30;;;;;;;7.00;4.40;;;;;;;15.94;51.07;100829.80;107422;1244;60795;-75
2023/05/16 04:27:59;;;;;;;8.00;4.70;;;;;;;15.90;51.27;100823.70;107207;1245;60913;-73
2023/05/16 04:30:27;;;;;;;7.10;4.40;;;;;;;15.94;51.23;100829.64;107163;1241;74754;-74
2023/05/16 04:32:58;;;;;;;9.90;4.70;;;;;;;16.02;51.32;100828.48;107063;1241;72610;-70
2023/05/16 04:35:27;;;;;;;8.40;5.10;;;;;;;15.97;51.28;100827.77;107280;1244;69855;-74
2023/05/16 04:37:56;;;;;;;7.80;4.60;;;;;;;16.05;51.25;100830.16;107162;1244;73038;-72
2023/05/16 04:40:26;;;;;;;9.90;4.90;;;;;;;16.10;51.12;100834.95;107178;1244;59021;-74
2023/05/16 04:42:55;;;;;;;6.70;4.40;;;;;;;16.17;51.16;100835.34;107324;1244;59521;-71
2023/05/16 04:45:24;;;;;;;8.20;4.30;;;;;;;16.22;51.08;100838.20;107311;1254;62491;-70
2023/05/16 04:47:54;;;;;;;5.90;4.80;;;;;;;16.30;51.48;100839.79;107287;1242;71413;-70
2023/05/16 04:50:23;;;;;;;8.80;4.60;;;;;;;16.37;51.21;100838.95;107390;1250;59638;-70
2023/05/16 04:52:52;;;;;;;7.10;4.60;;;;;;;16.49;50.78;100840.09;107391;1251;62797;-70
2023/05/16 04:55:23;;;;;;;6.90;4.40;;;;;;;16.51;50.84;100839.20;107341;1242;60818;-69
2023/05/16 04:57:53;;;;;;;8.70;5.20;;;;;;;16.58;50.98;100839.36;107408;1241;59997;-69
2023/05/16 05:00:22;;;;;;;12.20;5.00;;;;;;;16.61;51.08;100840.51;107467;1242;73499;-71
2023/05/16 05:02:51;;;;;;;7.60;4.70;;;;;;;16.63;51.13;100838.33;107422;1250;62018;-70
2023/05/16 05:05:20;;;;;;;4.90;4.00;;;;;;;16.75;50.59;100836.71;107449;1242;59196;-71
2023/05/16 05:07:49;;;;;;;8.30;4.60;;;;;;;16.73;50.29;100839.88;107417;1242;62434;-71
2023/05/16 05:10:18;;;;;;;8.20;4.70;;;;;;;16.72;51.10;100842.14;107550;1242;58889;-70
2023/05/16 05:12:47;;;;;;;8.30;4.50;;;;;;;16.77;50.73;100841.50;107458;1242;58977;-72
2023/05/16 05:15:16;;;;;;;10.80;5.30;;;;;;;16.84;50.22;100839.75;107378;1253;62790;-71
2023/05/16 05:17:45;;;;;;;8.00;4.50;;;;;;;16.80;50.19;100842.08;107443;1249;61531;-71
2023/05/16 05:20:14;;;;;;;7.20;4.90;;;;;;;16.80;50.14;100843.23;107350;1242;69712;-71
2023/05/16 05:22:43;;;;;;;8.50;4.40;;;;;;;16.82;49.94;100840.48;107371;1241;74588;-70
2023/05/16 05:25:13;;;;;;;10.60;4.90;;;;;;;16.86;49.86;100841.85;107371;1251;61790;-70
2023/05/16 05:27:42;;;;;;;10.40;5.20;;;;;;;16.93;49.95;100841.89;107428;1243;57399;-71
2023/05/16 05:30:12;;;;;;;6.50;4.70;;;;;;;16.99;50.02;100840.08;107345;1254;62470;-71
2023/05/16 05:32:40;;;;;;;7.10;4.30;;;;;;;17.11;49.57;100840.59;107364;1247;72245;-70
2023/05/16 05:35:10;;;;;;;10.30;4.20;;;;;;;17.10;49.76;100839.83;107267;1254;70328;-70
2023/05/16 05:37:39;;;;;;;6.10;4.00;;;;;;;17.16;49.27;100843.61;107342;1245;73429;-70
2023/05/16 05:40:08;;;;;;;9.60;4.60;;;;;;;17.01;49.48;100839.69;107474;1252;60527;-70
2023/05/16 05:42:37;;;;;;;12.30;5.00;;;;;;;17.03;49.84;100841.77;107486;1242;58693;-71
2023/05/16 05:45:07;;;;;;;14.60;4.70;;;;;;;17.16;49.69;100839.78;107407;1242;62145;-71
2023/05/16 05:47:36;;;;;;;9.90;4.60;;;;;;;17.31;49.47;100837.75;108263;1242;72196;-71
2023/05/16 05:50:07;;;;;;;8.40;4.60;;;;;;;17.33;49.38;100833.38;108210;1243;59574;-70
2023/05/16 05:52:37;;;;;;;7.20;4.70;;;;;;;17.33;49.24;100830.36;107329;1240;63272;-70
2023/05/16 05:55:07;;;;;;;7.20;4.40;;;;;;;17.42;48.94;100832.79;107361;1244;58789;-71
2023/05/16 05:57:35;;;;;;;9.00;4.60;;;;;;;17.44;49.37;100834.13;107410;1242;61339;-73
2023/05/16 06:00:06;;;;;;;7.80;4.30;;;;;;;17.37;49.14;100830.80;107412;1252;64094;-71
2023/05/16 06:02:37;;;;;;;;;;;;;;;17.57;48.96;100838.72;107381;1242;62013;-72
2023/05/16 06:05:07;;;;;;;7.70;4.30;;;;;;;17.78;48.65;100841.18;107414;1253;59307;-72
2023/05/16 06:07:36;;;;;;;8.20;4.00;;;;;;;17.56;48.62;100842.27;107404;1245;73104;-72
2023/05/16 06:10:07;;;;;;;7.50;3.70;;;;;;;17.37;48.92;100845.26;107361;1242;60530;-71
2023/05/16 06:12:36;;;;;;;6.70;3.90;;;;;;;17.56;48.55;100846.75;107451;1240;61622;-71
2023/05/16 06:15:06;;;;;;;8.80;4.20;;;;;;;17.99;47.69;100846.65;107474;1241;74738;-71
2023/05/16 06:17:35;;;;;;;9.10;4.30;;;;;;;18.30;47.19;100849.77;107399;1245;73545;-71
2023/05/16 06:20:05;;;;;;;7.50;3.70;;;;;;;18.62;46.60;100851.28;107449;1242;70274;-71
2023/05/16 06:22:34;;;;;;;7.00;3.80;;;;;;;18.36;46.33;100851.88;107469;1254;63226;-71
2023/05/16 06:25:03;;;;;;;8.20;4.30;;;;;;;18.51;46.48;100851.39;107478;1242;58956;-71
2023/05/16 06:27:32;;;;;;;5.00;3.40;;;;;;;18.88;45.51;100851.25;107468;1242;62229;-75
2023/05/16 06:30:01;;;;;;;5.00;3.20;;;;;;;19.16;45.20;100849.45;107546;1253;63330;-75
2023/05/16 06:32:30;;;;;;;7.00;3.80;;;;;;;19.46;44.95;100848.70;107569;1241;61679;-73
2023/05/16 06:34:59;;;;;;;8.70;3.50;;;;;;;19.72;43.91;100852.36;107628;1242;59229;-73
2023/05/16 06:37:28;;;;;;;4.70;3.00;;;;;;;20.18;41.71;100856.25;107482;1253;73939;-73
2023/05/16 06:39:58;;;;;;;7.10;3.10;;;;;;;20.09;40.99;100854.59;107593;1250;61359;-73
2023/05/16 06:42:27;;;;;;;7.40;3.30;;;;;;;19.89;41.37;100858.87;107631;1253;61031;-73
2023/05/16 06:44:55;;;;;;;8.50;3.40;;;;;;;20.02;41.35;100854.88;107536;1253;73477;-72
2023/05/16 06:47:24;;;;;;;8.90;3.50;;;;;;;20.01;41.34;100854.92;107589;1241;72590;-72
2023/05/16 06:49:53;;;;;;;6.10;3.30;;;;;;;19.96;40.78;100858.64;107554;1253;60213;-74
2023/05/16 06:52:22;;;;;;;5.40;3.30;;;;;;;19.54;40.66;100860.79;107595;1242;63169;-74
2023/05/16 06:54:52;;;;;;;7.30;3.40;;;;;;;19.76;40.39;100865.08;107507;1241;58927;-74
2023/05/16 06:57:20;;;;;;;7.40;3.20;;;;;;;19.70;40.28;100863.95;107349;1245;59307;-74
2023/05/16 06:59:49;;;;;;;7.60;4.50;;;;;;;19.99;40.30;100866.24;107523;1250;62823;-74
2023/05/16 07:02:18;;;;;;;7.30;3.40;;;;;;;20.09;40.64;100863.94;107565;1242;60804;-74
2023/05/16 07:04:47;;;;;;;7.10;3.20;;;;;;;20.44;40.13;100857.83;107428;1241;69626;-74
2023/05/16 07:07:16;;;;;;;5.80;3.30;;;;;;;20.56;39.75;100853.14;107388;1246;73593;-74
2023/05/16 07:09:45;;;;;;;5.60;2.90;;;;;;;20.44;39.80;100850.60;107565;1248;58765;-74
2023/05/16 07:12:13;;;;;;;4.60;2.90;;;;;;;20.64;39.47;100846.30;107588;1242;60739;-74
2023/05/16 07:14:42;;;;;;;8.70;3.70;;;;;;;20.69;39.19;100850.07;107520;1251;63542;-74
2023/05/16 07:17:11;;;;;;;8.90;3.60;;;;;;;20.71;39.68;100851.79;107587;1241;60928;-75
2023/05/16 07:19:40;;;;;;;7.50;3.00;;;;;;;20.75;39.53;100848.88;107525;1244;59071;-74
2023/05/16 07:22:09;;;;;;;7.30;3.20;;;;;;;20.86;39.12;100846.38;107525;1253;73053;-75
2023/05/16 07:24:38;;;;;;;5.50;3.20;;;;;;;20.90;38.71;100847.28;107517;1240;58379;-74
2023/05/16 07:27:07;;;;;;;6.00;3.10;;;;;;;21.15;38.85;100848.16;107594;1242;57503;-74
2023/05/16 07:29:37;;;;;;;6.20;2.70;;;;;;;21.26;38.36;100849.91;107516;1251;65054;-74
2023/05/16 07:32:07;;;;;;;4.50;2.60;;;;;;;21.23;38.30;100849.33;107519;1245;72083;-75
2023/05/16 07:34:36;;;;;;;6.30;3.20;;;;;;;21.67;37.79;100852.02;107445;1245;60109;-74
2023/05/16 07:37:11;;;;;;;7.60;3.20;;;;;;;21.42;38.03;100848.33;107400;1244;63289;-75
2023/05/16 07:39:40;;;;;;;6.00;3.00;;;;;;;21.61;38.19;100852.52;107500;1242;59038;-74
2023/05/16 07:42:09;;;;;;;5.80;3.20;;;;;;;21.88;37.56;100848.63;107444;1251;61651;-74
2023/05/16 07:44:38;;;;;;;5.90;2.70;;;;;;;21.89;36.33;100854.91;107374;1242;63736;-75
2023/05/16 07:47:07;;;;;;;9.20;3.40;;;;;;;22.08;35.92;100856.10;107374;1245;61616;-74
2023/05/16 07:49:36;;;;;;;6.20;3.20;;;;;;;22.23;35.82;100855.06;107314;1253;59265;-74
2023/05/16 07:52:05;;;;;;;6.10;3.00;;;;;;;22.28;36.12;100853.34;107352;1251;73740;-76
2023/05/16 07:54:35;;;;;;;6.50;2.90;;;;;;;22.56;34.76;100851.25;107307;1242;58696;-74
2023/05/16 07:57:04;;;;;;;5.60;3.10;;;;;;;22.57;34.50;100845.23;107327;1241;61167;-74
2023/05/16 07:59:33;;;;;;;7.60;3.10;;;;;;;22.48;34.85;100843.79;107337;1253;64513;-76
2023/05/16 08:02:02;;;;;;;5.40;3.20;;;;;;;22.40;35.49;100836.34;107396;1242;62129;-74
2023/05/16 08:04:32;;;;;;;10.70;3.00;;;;;;;22.52;34.85;100828.03;107141;1245;240288;-74
2023/05/16 08:07:01;;;;;;;4.80;2.40;;;;;;;22.55;33.98;100832.11;107417;1253;74179;-74
2023/05/16 08:09:30;;;;;;;7.10;2.30;;;;;;;22.49;34.26;100833.44;107455;1241;58820;-74
2023/05/16 08:12:02;;;;;;;7.90;2.90;;;;;;;22.79;34.16;100839.83;107543;1250;60469;-75
2023/05/16 08:14:31;;;;;;;7.10;3.30;;;;;;;22.84;34.60;100843.69;107514;1243;73338;-75
2023/05/16 08:17:00;;;;;;;6.90;2.90;;;;;;;23.17;34.61;100843.61;107467;1241;72691;-77
2023/05/16 08:19:31;;;;;;;8.70;3.80;;;;;;;23.51;34.47;100841.26;107446;1253;60494;-73
2023/05/16 08:22:01;;;;;;;4.80;2.60;;;;;;;23.76;34.46;100843.45;107475;1242;62541;-76
2023/05/16 08:24:30;;;;;;;4.70;2.60;;;;;;;23.79;34.56;100845.92;107504;1249;58733;-72
2023/05/16 08:26:59;;;;;;;5.20;3.00;;;;;;;23.83;34.46;100850.29;107393;1243;58213;-75
2023/05/16 08:29:29;;;;;;;8.80;2.90;;;;;;;23.82;33.87;100845.95;107632;1242;63734;-72
2023/05/16 08:31:58;;;;;;;7.20;3.30;;;;;;;23.72;34.28;100844.14;107337;1241;72127;-77
2023/05/16 08:34:31;;;;;;;4.70;2.80;;;;;;;23.73;34.27;100834.09;107591;1242;60505;-78
2023/05/16 08:37:00;;;;;;;;;;;;;;;23.98;34.20;100833.42;107560;1251;73786;-77
2023/05/16 08:39:29;;;;;;;6.40;3.00;;;;;;;23.79;34.06;100826.21;107399;1241;60816;-77
2023/05/16 08:41:59;;;;;;;9.40;3.00;;;;;;;23.89;34.64;100825.37;107566;1242;59105;-78
2023/05/16 08:44:30;;;;;;;5.20;2.80;;;;;;;23.81;35.00;100832.13;107587;1240;74235;-78
2023/05/16 08:47:11;;;;;;;6.90;3.00;;;;;;;24.26;34.37;100836.35;107470;1241;72714;-72
2023/05/16 08:49:41;;;;;;;7.80;3.80;;;;;;;24.31;34.90;100836.52;107438;1242;60368;-73
2023/05/16 08:52:12;;;;;;;6.20;3.10;;;;;;;24.27;34.74;100841.77;107529;1245;72310;-71
2023/05/16 08:54:41;;;;;;;5.40;3.00;;;;;;;24.06;35.22;100840.34;107319;1241;60489;-73
2023/05/16 08:57:12;;;;;;;4.80;2.90;;;;;;;23.69;34.67;100839.76;108826;1245;60341;-72
2023/05/16 08:59:42;;;;;;;7.30;2.80;;;;;;;23.19;35.53;100842.55;107425;1242;73570;-72
2023/05/16 09:02:12;;;;;;;4.80;2.90;;;;;;;23.48;35.24;100838.98;107292;1248;72771;-72
2023/05/16 09:04:44;;;;;;;5.30;2.50;;;;;;;23.94;35.05;100831.75;108046;1240;62672;-71
2023/05/16 09:07:14;;;;;;;9.90;3.00;;;;;;;24.03;34.59;100828.52;107434;1251;63225;-71
2023/05/16 09:09:43;;;;;;;7.40;3.20;;;;;;;23.98;34.49;100828.61;107458;1242;61211;-72
2023/05/16 09:12:12;;;;;;;7.70;2.70;;;;;;;23.83;34.97;100828.67;107388;1242;59032;-72
2023/05/16 09:14:42;;;;;;;8.50;3.30;;;;;;;24.12;34.94;100834.81;107356;1246;71759;-72
2023/05/16 09:17:11;;;;;;;5.60;3.00;;;;;;;23.78;35.48;100835.95;107431;1241;62495;-71
2023/05/16 09:19:42;;;;;;;5.80;2.70;;;;;;;23.96;35.76;100838.59;107387;1245;69959;-72
2023/05/16 09:22:13;;;;;;;6.60;3.10;;;;;;;24.21;35.65;100843.98;107406;1242;73058;-72
2023/05/16 09:24:43;;;;;;;5.60;3.20;;;;;;;23.73;36.90;100840.63;107318;1245;61610;-71
2023/05/16 09:27:14;;;;;;;6.40;2.70;;;;;;;23.48;36.93;100842.33;107460;1242;59042;-71
2023/05/16 09:29:45;;;;;;;3.20;2.60;;;;;;;23.66;36.33;100837.59;107334;1245;73511;-72
2023/05/16 09:32:16;;;;;;;5.80;3.00;;;;;;;24.06;35.82;100828.95;107341;1242;61408;-72
2023/05/16 09:34:50;;;;;;;15.60;4.10;;;;;;;23.85;36.73;100833.37;107358;1245;59995;-72
2023/05/16 09:37:19;;;;;;;9.60;3.00;;;;;;;24.13;36.35;100838.29;107382;1241;73848;-72
2023/05/16 09:39:53;;;;;;;7.80;3.00;;;;;;;24.22;35.86;100837.39;107354;1244;59015;-72
2023/05/16 09:42:24;;;;;;;5.30;3.20;;;;;;;24.31;35.84;100833.97;107451;1242;59044;-72
2023/05/16 09:44:55;;;;;;;6.10;3.10;;;;;;;24.03;35.48;100830.83;107546;1253;62112;-72
2023/05/16 09:47:27;;;;;;;8.70;3.40;;;;;;;23.66;36.28;100832.27;107337;1244;61490;-72
2023/05/16 09:49:56;;;;;;;6.40;3.00;;;;;;;23.81;36.35;100838.23;107539;1242;59186;-72
2023/05/16 09:52:29;;;;;;;6.00;3.10;;;;;;;24.50;35.45;100830.06;107430;1242;62308;-75
2023/05/16 09:54:57;;;;;;;5.90;3.10;;;;;;;24.16;36.05;100829.35;107495;1245;59106;-76
2023/05/16 09:57:29;;;;;;;4.90;3.00;;;;;;;24.37;36.09;100832.30;107667;1247;57715;-76
2023/05/16 10:00:00;;;;;;;4.20;2.90;;;;;;;24.24;36.03;100831.16;107542;1240;63922;-75
2023/05/16 10:02:32;;;;;;;7.50;3.30;;;;;;;24.14;36.32;100829.63;107555;1244;60901;-76
2023/05/16 10:05:01;;;;;;;7.30;3.40;;;;;;;23.64;37.81;100829.16;107590;1241;59524;-77
2023/05/16 10:07:33;;;;;;;7.90;3.80;;;;;;;23.43;38.61;100824.11;107515;1242;62482;-76
2023/05/16 10:10:09;;;;;;;5.00;3.30;;;;;;;23.77;38.39;100826.27;107438;1245;58966;-77
2023/05/16 10:12:40;;;;;;;8.60;3.70;;;;;;;23.88;38.04;100826.84;107640;1242;57464;-75
2023/05/16 10:15:09;;;;;;;5.90;3.30;;;;;;;24.01;37.66;100824.34;107514;1241;74483;-74
2023/05/16 10:17:42;;;;;;;6.60;3.40;;;;;;;24.39;36.52;100822.76;107473;1242;61770;-75
2023/05/16 10:20:12;;;;;;;6.30;3.20;;;;;;;24.28;35.29;100823.88;107447;1245;69643;-75
2023/05/16 10:22:43;;;;;;;6.40;3.30;;;;;;;24.55;34.70;100823.96;107486;1242;74028;-79
2023/05/16 10:25:39;;;;;;;8.40;3.70;;;;;;;25.05;32.82;100820.76;107412;1244;60915;-75
2023/05/16 10:28:09;;;;;;;6.00;2.70;;;;;;;25.19;32.71;100827.39;107200;1245;60952;-75
2023/05/16 10:30:42;;;;;;;4.70;2.80;;;;;;;25.58;31.50;100829.16;107304;1241;62969;-76
2023/05/16 10:33:17;;;;;;;6.00;2.60;;;;;;;25.26;30.81;100822.11;107351;1252;72110;-75
2023/05/16 10:35:47;;;;;;;5.80;2.60;;;;;;;25.87;31.06;100824.73;107324;1253;61053;-75
2023/05/16 10:38:18;;;;;;;7.90;3.10;;;;;;;26.28;30.06;100824.00;107312;1245;73096;-75
2023/05/16 10:40:48;;;;;;;7.40;2.90;;;;;;;26.23;30.31;100823.69;107260;1242;58968;-74
2023/05/16 10:43:26;;;;;;;5.00;2.60;;;;;;;25.81;30.75;100828.23;107261;1245;58305;-75
2023/05/16 10:46:10;;;;;;;6.90;2.70;;;;;;;25.28;31.54;100825.35;107209;1242;62613;-75
2023/05/16 10:48:41;;;;;;;5.10;2.60;;;;;;;25.10;32.07;100821.30;107190;1242;71918;-75
2023/05/16 10:51:37;;;;;;;4.70;2.50;;;;;;;24.94;32.67;100820.08;107355;1253;62384;-74
2023/05/16 10:54:13;;;;;;;4.50;2.70;;;;;;;24.56;33.14;100820.35;107329;1253;63575;-72
2023/05/16 10:56:42;;;;;;;5.00;2.90;;;;;;;24.49;32.86;100823.39;107291;1244;58645;-73
2023/05/16 10:59:25;;;;;;;5.40;2.60;;;;;;;24.40;32.88;100820.15;107192;1242;59184;-74
2023/05/16 11:01:55;;;;;;;6.10;3.30;;;;;;;24.81;32.62;100819.22;107361;1243;71703;-76
2023/05/16 11:04:45;;;;;;;8.00;3.00;;;;;;;25.33;32.03;100819.16;107431;1241;71849;-74
2023/05/16 11:07:17;;;;;;;5.30;2.80;;;;;;;25.92;32.03;100813.48;107426;1245;71871;-72
2023/05/16 11:10:02;;;;;;;;;;;;;;;26.12;31.90;100812.52;107412;1245;64740;-73
2023/05/16 11:12:48;;;;;;;6.50;3.40;;;;;;;25.63;33.76;100810.45;107671;1242;59050;-74
2023/05/16 11:15:26;;;;;;;7.10;3.10;;;;;;;25.60;34.45;100811.77;107380;1243;58948;-74
2023/05/16 11:18:13;;;;;;;8.60;3.50;;;;;;;25.46;35.05;100806.14;107444;1253;72996;-76
2023/05/16 11:20:42;;;;;;;7.50;3.30;;;;;;;25.59;34.35;100806.71;107284;1245;61181;-76
2023/05/16 11:23:23;;;;;;;7.90;3.40;;;;;;;25.87;34.43;100805.40;107419;1242;59982;-75
2023/05/16 11:25:55;;;;;;;9.20;3.80;;;;;;;25.53;35.19;100807.39;107415;1242;72113;-76
2023/05/16 11:28:26;;;;;;;7.40;2.90;;;;;;;25.53;35.23;100811.96;107489;1243;58781;-75
2023/05/16 11:30:58;;;;;;;8.30;4.10;;;;;;;25.24;35.56;100812.73;107372;1251;61242;-75
2023/05/16 11:33:33;;;;;;;5.40;3.10;;;;;;;26.09;34.43;100812.92;107310;1253;74315;-75